Aviation

Port-au-Prince

FTHA31 MTPP 191700
TAF MTPP 191700Z 1918/2018 12012KT 9000 FEW030
BECMG 1919/1923 27010KT
PROB30 TEMPO 2000/2004 10010KT 4500 -SHRA SCT024CB SCT040
BECMG 2006/2010 VRB02KT 9000 FEW020
BECMG 2014/2018 09012KT=


Cap-Haïtien

FTHA31 MTCH 191700
TAF MTCH 191700Z 1918/2018 03012KT 9000 FEW030CB BKN200
PROB30 TEMPO 1922/2002 4500 SHRA SCT022CB SCT050
BECMG 2006/2010 VRB02KT 9000 FEW020
BECMG 2014/2018 04012KT=